Time;durP1;ratioP1;P1;durP2;ratioP2;P2;SDS_P1;SDS_P2;PMS_P1;PMS_P2;Temp;Humidity;BMP_temperature;BMP_pressure;BME280_temperature;BME280_humidity;BME280_pressure;Samples;Min_cycle;Max_cycle;Signal;HPM_P1;HPM_P2
2021/10/26 00:01:25;;;;;;;6.97;3.00;;;;;;;;;;5083554;28;20021;-74
2021/10/26 00:03:51;;;;;;;4.43;2.58;;;;;;;;;;5083285;28;20032;-75
2021/10/26 00:06:17;;;;;;;5.13;2.85;;;;;;;;;;5082565;28;20037;-73
2021/10/26 00:08:43;;;;;;;7.88;3.50;;;;;;;;;;5084210;28;20057;-74
2021/10/26 00:11:09;;;;;;;5.75;3.10;;;;;;;;;;5082951;28;20017;-72
2021/10/26 00:13:36;;;;;;;6.20;2.60;;;;;;;;;;5082376;28;20024;-75
2021/10/26 00:16:02;;;;;;;7.32;3.15;;;;;;;;;;5082637;28;20471;-74
2021/10/26 00:18:28;;;;;;;6.25;2.58;;;;;;;;;;5083019;28;20368;-74
2021/10/26 00:20:54;;;;;;;6.25;2.45;;;;;;;;;;5082893;28;20107;-74
2021/10/26 00:23:21;;;;;;;4.82;2.13;;;;;;;;;;5082487;28;20036;-72
2021/10/26 00:25:47;;;;;;;6.38;2.28;;;;;;;;;;5083032;28;20027;-73
2021/10/26 00:28:14;;;;;;;5.45;2.70;;;;;;;;;;5082457;28;20074;-75
2021/10/26 00:30:40;;;;;;;6.95;2.60;;;;;;;;;;5082499;28;20411;-75
2021/10/26 00:33:06;;;;;;;8.65;3.03;;;;;;;;;;5082610;28;20025;-74
2021/10/26 00:35:32;;;;;;;7.35;2.42;;;;;;;;;;5082981;28;20108;-76
2021/10/26 00:38:01;;;;;;;7.75;2.28;;;;;;;;;;5082833;28;20035;-76
2021/10/26 00:40:28;;;;;;;7.22;2.50;;;;;;;;;;5082674;28;20031;-76
2021/10/26 00:42:54;;;;;;;4.68;2.67;;;;;;;;;;5082114;28;20032;-74
2021/10/26 00:45:21;;;;;;;7.15;2.58;;;;;;;;;;5080510;28;20028;-73
2021/10/26 00:47:47;;;;;;;5.40;2.35;;;;;;;;;;5082161;28;20044;-76
2021/10/26 00:50:13;;;;;;;3.47;2.78;;;;;;;;;;5081912;28;20025;-73
2021/10/26 00:52:41;;;;;;;5.43;2.75;;;;;;;;;;5082797;28;20035;-77
2021/10/26 00:55:08;;;;;;;6.43;2.55;;;;;;;;;;5080662;28;20016;-75
2021/10/26 00:57:34;;;;;;;6.60;2.30;;;;;;;;;;5082444;28;20111;-74
2021/10/26 01:00:06;;;;;;;6.65;2.42;;;;;;;;;;5082279;28;20029;-74
2021/10/26 01:02:33;;;;;;;8.77;2.75;;;;;;;;;;5082338;28;20360;-73
2021/10/26 01:04:59;;;;;;;6.68;2.30;;;;;;;;;;5082025;28;20134;-75
2021/10/26 01:07:25;;;;;;;4.32;2.65;;;;;;;;;;5082638;28;20024;-76
2021/10/26 01:09:51;;;;;;;6.25;2.30;;;;;;;;;;5081793;28;20025;-72
2021/10/26 01:12:17;;;;;;;4.85;2.22;;;;;;;;;;5081481;28;20020;-76
2021/10/26 01:14:43;;;;;;;7.50;2.70;;;;;;;;;;5081474;28;20031;-74
2021/10/26 01:17:11;;;;;;;4.38;2.13;;;;;;;;;;5084557;28;20082;-73
2021/10/26 01:19:44;;;;;;;5.65;2.35;;;;;;;;;;5080898;28;20059;-76
2021/10/26 01:22:11;;;;;;;4.63;2.50;;;;;;;;;;5080833;28;20024;-73
2021/10/26 01:24:37;;;;;;;6.47;2.50;;;;;;;;;;5080668;28;20138;-73
2021/10/26 01:27:03;;;;;;;3.95;2.13;;;;;;;;;;5080272;28;20032;-74
2021/10/26 01:29:29;;;;;;;7.53;2.35;;;;;;;;;;5080294;28;20024;-77
2021/10/26 01:31:55;;;;;;;4.70;2.30;;;;;;;;;;5079829;28;20021;-75
2021/10/26 01:34:21;;;;;;;4.82;2.63;;;;;;;;;;5080136;28;20028;-72
2021/10/26 01:36:50;;;;;;;4.65;2.38;;;;;;;;;;5079537;28;20383;-75
2021/10/26 01:39:16;;;;;;;9.55;2.83;;;;;;;;;;5079953;28;20031;-73
2021/10/26 01:41:42;;;;;;;7.05;2.30;;;;;;;;;;5080742;28;20035;-75
2021/10/26 01:44:08;;;;;;;3.65;2.28;;;;;;;;;;5079868;28;20052;-72
2021/10/26 01:46:34;;;;;;;6.93;2.80;;;;;;;;;;5079405;28;20100;-76
2021/10/26 01:49:01;;;;;;;4.07;2.58;;;;;;;;;;5080549;28;20049;-74
2021/10/26 01:51:27;;;;;;;5.60;2.30;;;;;;;;;;5079665;28;20025;-73
2021/10/26 01:53:53;;;;;;;6.93;2.83;;;;;;;;;;5079643;28;20012;-74
2021/10/26 01:56:19;;;;;;;6.03;2.35;;;;;;;;;;5079833;28;20047;-74
2021/10/26 01:58:46;;;;;;;6.88;2.50;;;;;;;;;;5080689;28;20070;-74
2021/10/26 02:01:12;;;;;;;2.97;1.92;;;;;;;;;;5079796;28;20031;-73
2021/10/26 02:03:38;;;;;;;5.68;2.58;;;;;;;;;;5079632;28;20619;-73
2021/10/26 02:06:13;;;;;;;4.82;2.10;;;;;;;;;;5079697;28;20048;-76
2021/10/26 02:08:39;;;;;;;8.05;2.42;;;;;;;;;;5081512;28;20048;-73
2021/10/26 02:11:06;;;;;;;5.15;2.28;;;;;;;;;;5079330;28;20021;-74
2021/10/26 02:13:32;;;;;;;7.45;2.58;;;;;;;;;;5078859;28;20032;-76
2021/10/26 02:15:58;;;;;;;4.28;2.60;;;;;;;;;;5080187;28;20023;-73
2021/10/26 02:18:24;;;;;;;6.60;2.42;;;;;;;;;;5080491;28;20031;-75
2021/10/26 02:20:50;;;;;;;8.10;2.45;;;;;;;;;;5079685;28;20033;-74
2021/10/26 02:23:17;;;;;;;4.40;2.35;;;;;;;;;;5080094;28;20033;-72
2021/10/26 02:25:43;;;;;;;4.63;3.28;;;;;;;;;;5079982;28;20075;-76
2021/10/26 02:28:09;;;;;;;6.65;2.30;;;;;;;;;;5081845;28;20024;-73
2021/10/26 02:30:41;;;;;;;5.53;2.78;;;;;;;;;;5079921;28;20073;-72
2021/10/26 02:33:08;;;;;;;3.28;2.30;;;;;;;;;;5081300;28;20039;-73
2021/10/26 02:35:34;;;;;;;5.30;3.00;;;;;;;;;;5085274;28;20016;-78
2021/10/26 02:38:00;;;;;;;5.20;2.28;;;;;;;;;;5086602;28;20039;-72
2021/10/26 02:40:27;;;;;;;5.97;3.05;;;;;;;;;;5085937;28;20099;-71
2021/10/26 02:42:53;;;;;;;4.22;2.28;;;;;;;;;;5086003;28;20024;-72
2021/10/26 02:45:19;;;;;;;6.13;2.40;;;;;;;;;;5086280;28;20035;-73
2021/10/26 02:47:46;;;;;;;4.18;2.00;;;;;;;;;;5086007;28;20059;-72
2021/10/26 02:50:12;;;;;;;7.35;2.53;;;;;;;;;;5086408;28;20025;-71
2021/10/26 02:52:39;;;;;;;5.57;2.22;;;;;;;;;;5086258;28;20109;-73
2021/10/26 02:55:06;;;;;;;10.27;3.20;;;;;;;;;;5086003;28;20576;-71
2021/10/26 02:57:32;;;;;;;6.60;2.80;;;;;;;;;;5086167;28;20032;-72
2021/10/26 02:59:58;;;;;;;7.15;3.05;;;;;;;;;;5085810;28;20025;-72
2021/10/26 03:02:25;;;;;;;6.20;2.60;;;;;;;;;;5085794;28;20423;-72
2021/10/26 03:04:51;;;;;;;5.43;2.40;;;;;;;;;;5084821;28;20039;-72
2021/10/26 03:07:17;;;;;;;6.70;2.13;;;;;;;;;;5083643;28;20027;-75
2021/10/26 03:09:46;;;;;;;6.85;2.47;;;;;;;;;;5083850;28;20013;-75
2021/10/26 03:12:12;;;;;;;4.47;2.38;;;;;;;;;;5083437;28;20024;-72
2021/10/26 03:14:38;;;;;;;9.27;3.10;;;;;;;;;;5082398;28;20021;-75
2021/10/26 03:17:04;;;;;;;5.15;2.47;;;;;;;;;;5082869;28;20095;-76
2021/10/26 03:19:30;;;;;;;3.58;2.30;;;;;;;;;;5080750;28;20021;-75
2021/10/26 03:21:56;;;;;;;5.00;1.95;;;;;;;;;;5079087;28;20032;-74
2021/10/26 03:24:22;;;;;;;4.88;2.85;;;;;;;;;;5079995;28;20024;-75
2021/10/26 03:26:48;;;;;;;6.07;2.85;;;;;;;;;;5080030;28;20041;-72
2021/10/26 03:29:15;;;;;;;5.10;2.25;;;;;;;;;;5080009;28;20070;-75
2021/10/26 03:31:41;;;;;;;6.78;2.40;;;;;;;;;;5080533;28;20028;-76
2021/10/26 03:34:08;;;;;;;4.00;2.40;;;;;;;;;;5080003;28;20020;-73
2021/10/26 03:36:34;;;;;;;8.30;2.72;;;;;;;;;;5079845;28;20020;-72
2021/10/26 03:39:00;;;;;;;2.70;2.00;;;;;;;;;;5081539;28;20027;-75
2021/10/26 03:41:27;;;;;;;4.93;2.35;;;;;;;;;;5080178;28;20040;-72
2021/10/26 03:43:54;;;;;;;9.13;2.55;;;;;;;;;;5080995;28;20032;-76
2021/10/26 03:46:20;;;;;;;3.42;2.20;;;;;;;;;;5080883;28;20025;-76
2021/10/26 03:48:46;;;;;;;4.00;2.17;;;;;;;;;;5081591;28;20067;-72
2021/10/26 03:51:13;;;;;;;7.30;2.40;;;;;;;;;;5080463;28;20025;-75
2021/10/26 03:53:39;;;;;;;6.03;2.50;;;;;;;;;;5080537;28;20027;-75
2021/10/26 03:56:05;;;;;;;7.50;2.33;;;;;;;;;;5081653;28;20017;-71
2021/10/26 03:58:34;;;;;;;3.90;2.10;;;;;;;;;;5082726;28;20033;-75
2021/10/26 04:01:00;;;;;;;3.90;2.42;;;;;;;;;;5084413;28;20044;-74
2021/10/26 04:03:26;;;;;;;5.68;2.65;;;;;;;;;;5085189;28;20024;-73
2021/10/26 04:06:00;;;;;;;7.75;2.40;;;;;;;;;;5086130;28;20043;-72
2021/10/26 04:08:39;;;;;;;6.10;2.10;;;;;;;;;;5084715;28;20122;-74
2021/10/26 04:11:19;;;;;;;4.95;2.15;;;;;;;;;;5084914;28;20023;-77
2021/10/26 04:13:45;;;;;;;9.63;3.53;;;;;;;;;;5085177;28;20017;-74
2021/10/26 04:16:11;;;;;;;6.70;2.00;;;;;;;;;;5083928;28;20025;-73
2021/10/26 04:18:37;;;;;;;8.05;2.00;;;;;;;;;;5083479;28;20386;-77
2021/10/26 04:21:04;;;;;;;3.58;2.00;;;;;;;;;;5083997;28;20035;-75
2021/10/26 04:23:30;;;;;;;4.90;2.08;;;;;;;;;;5083682;28;20024;-76
2021/10/26 04:25:56;;;;;;;2.90;2.00;;;;;;;;;;5083836;28;20032;-76
2021/10/26 04:28:23;;;;;;;4.97;2.17;;;;;;;;;;5084090;28;20043;-73
2021/10/26 04:30:49;;;;;;;6.30;2.55;;;;;;;;;;5084895;28;20656;-74
2021/10/26 04:33:15;;;;;;;6.35;2.13;;;;;;;;;;5085058;28;20425;-76
2021/10/26 04:35:42;;;;;;;6.60;2.00;;;;;;;;;;5086108;28;20031;-74
2021/10/26 04:38:08;;;;;;;5.07;2.65;;;;;;;;;;5087689;28;20103;-75
2021/10/26 04:40:35;;;;;;;4.88;2.20;;;;;;;;;;5089264;28;20032;-73
2021/10/26 04:43:01;;;;;;;6.30;3.17;;;;;;;;;;5089428;28;20116;-73
2021/10/26 04:45:28;;;;;;;3.92;1.95;;;;;;;;;;5089453;28;20055;-74
2021/10/26 04:47:54;;;;;;;6.97;2.00;;;;;;;;;;5089422;28;20080;-75
2021/10/26 04:50:21;;;;;;;9.75;2.72;;;;;;;;;;5086770;28;20021;-76
2021/10/26 04:52:47;;;;;;;7.65;2.20;;;;;;;;;;5082620;28;20020;-72
2021/10/26 04:55:14;;;;;;;5.25;2.13;;;;;;;;;;5083397;28;20027;-75
2021/10/26 04:57:41;;;;;;;5.03;1.80;;;;;;;;;;5083530;28;20027;-76
2021/10/26 05:00:08;;;;;;;4.80;2.10;;;;;;;;;;5083879;28;20463;-73
2021/10/26 05:02:35;;;;;;;2.60;1.98;;;;;;;;;;5083010;28;20085;-76
2021/10/26 05:05:01;;;;;;;5.72;2.20;;;;;;;;;;5083190;28;20437;-74
2021/10/26 05:07:27;;;;;;;3.90;2.40;;;;;;;;;;5083499;28;20035;-73
2021/10/26 05:09:53;;;;;;;6.47;2.33;;;;;;;;;;5082991;28;20020;-76
2021/10/26 05:12:19;;;;;;;5.82;2.20;;;;;;;;;;5083902;28;20025;-76
2021/10/26 05:14:45;;;;;;;5.13;1.88;;;;;;;;;;5083135;28;20024;-75
2021/10/26 05:17:17;;;;;;;3.58;2.30;;;;;;;;;;5083120;28;20032;-77
2021/10/26 05:19:45;;;;;;;3.88;2.35;;;;;;;;;;5083834;28;20020;-72
2021/10/26 05:22:12;;;;;;;4.97;2.10;;;;;;;;;;5087607;28;20027;-74
2021/10/26 05:24:38;;;;;;;4.13;2.20;;;;;;;;;;5087809;28;20027;-72
2021/10/26 05:27:05;;;;;;;3.42;1.92;;;;;;;;;;5087294;28;20017;-71
2021/10/26 05:29:32;;;;;;;9.20;2.33;;;;;;;;;;5087293;28;20032;-72
2021/10/26 05:31:58;;;;;;;5.25;2.97;;;;;;;;;;5087315;28;20463;-72
2021/10/26 05:34:24;;;;;;;6.03;2.00;;;;;;;;;;5087286;28;20382;-71
2021/10/26 05:36:51;;;;;;;3.63;1.90;;;;;;;;;;5087294;28;20051;-72
2021/10/26 05:39:18;;;;;;;6.22;2.38;;;;;;;;;;5087031;28;20387;-72
2021/10/26 05:41:45;;;;;;;4.82;2.00;;;;;;;;;;5087068;28;20025;-71
2021/10/26 05:44:11;;;;;;;4.32;2.10;;;;;;;;;;5086859;28;20110;-72
2021/10/26 05:46:38;;;;;;;3.05;1.65;;;;;;;;;;5086347;28;20025;-73
2021/10/26 05:49:04;;;;;;;5.90;2.10;;;;;;;;;;5085936;28;20049;-72
2021/10/26 05:51:30;;;;;;;4.18;2.35;;;;;;;;;;5084959;28;20048;-72
2021/10/26 05:53:56;;;;;;;11.15;2.45;;;;;;;;;;5084369;28;20094;-77
2021/10/26 05:56:25;;;;;;;6.00;2.13;;;;;;;;;;5083281;28;20103;-73
2021/10/26 05:58:53;;;;;;;7.15;2.10;;;;;;;;;;5083274;28;20081;-73
2021/10/26 06:01:21;;;;;;;4.80;2.10;;;;;;;;;;5082920;28;20016;-72
2021/10/26 06:03:47;;;;;;;4.22;2.10;;;;;;;;;;5082810;28;20078;-73
2021/10/26 06:06:13;;;;;;;3.65;2.10;;;;;;;;;;5081821;28;20029;-72
2021/10/26 06:08:39;;;;;;;4.28;2.38;;;;;;;;;;5083473;28;20471;-76
2021/10/26 06:11:11;;;;;;;3.35;2.10;;;;;;;;;;5081795;28;20059;-75
2021/10/26 06:13:44;;;;;;;3.53;2.00;;;;;;;;;;5082926;28;20426;-75
2021/10/26 06:16:10;;;;;;;4.38;2.10;;;;;;;;;;5082442;28;20040;-75
2021/10/26 06:18:40;;;;;;;7.65;2.40;;;;;;;;;;5082899;28;20027;-71
2021/10/26 06:21:06;;;;;;;5.50;2.40;;;;;;;;;;5080885;28;20514;-73
2021/10/26 06:23:32;;;;;;;3.63;2.00;;;;;;;;;;5082265;28;20025;-74
2021/10/26 06:25:59;;;;;;;3.53;1.90;;;;;;;;;;5080731;28;20036;-76
2021/10/26 06:28:26;;;;;;;5.22;1.88;;;;;;;;;;5081415;28;20509;-75
2021/10/26 06:30:52;;;;;;;6.82;2.03;;;;;;;;;;5082039;28;20047;-75
2021/10/26 06:33:18;;;;;;;8.02;2.05;;;;;;;;;;5082801;28;20024;-73
2021/10/26 06:35:45;;;;;;;6.47;2.25;;;;;;;;;;5082295;28;20067;-74
2021/10/26 06:38:11;;;;;;;4.65;2.47;;;;;;;;;;5082216;28;20046;-73
2021/10/26 06:40:37;;;;;;;4.18;2.35;;;;;;;;;;5081773;28;20029;-75
2021/10/26 06:43:03;;;;;;;4.65;2.08;;;;;;;;;;5082021;28;20024;-74
2021/10/26 06:45:29;;;;;;;5.45;2.50;;;;;;;;;;5080603;28;20475;-72
2021/10/26 06:47:56;;;;;;;6.10;2.05;;;;;;;;;;5080995;28;20063;-76
2021/10/26 06:50:22;;;;;;;6.57;2.50;;;;;;;;;;5082085;28;20123;-75
2021/10/26 06:52:48;;;;;;;4.72;2.00;;;;;;;;;;5081559;28;20046;-74
2021/10/26 06:55:20;;;;;;;3.20;1.98;;;;;;;;;;5082437;28;20056;-77
2021/10/26 06:57:49;;;;;;;4.40;2.70;;;;;;;;;;5082144;28;20034;-75
2021/10/26 07:00:16;;;;;;;5.13;2.30;;;;;;;;;;5082123;28;20016;-75
2021/10/26 07:02:50;;;;;;;5.35;2.50;;;;;;;;;;5081194;28;20025;-76
2021/10/26 07:05:20;;;;;;;2.30;1.80;;;;;;;;;;5082915;28;20402;-75
2021/10/26 07:07:46;;;;;;;2.33;2.13;;;;;;;;;;5082490;28;20036;-74
2021/10/26 07:10:12;;;;;;;4.38;2.10;;;;;;;;;;5083320;28;20052;-72
2021/10/26 07:12:39;;;;;;;3.60;1.80;;;;;;;;;;5082911;28;20095;-74
2021/10/26 07:15:07;;;;;;;3.95;2.10;;;;;;;;;;5083026;28;20051;-75
2021/10/26 07:17:34;;;;;;;4.20;2.25;;;;;;;;;;5083568;28;20020;-75
2021/10/26 07:20:00;;;;;;;3.83;2.17;;;;;;;;;;5083081;28;20044;-76
2021/10/26 07:22:26;;;;;;;3.75;1.80;;;;;;;;;;5082031;28;20032;-75
2021/10/26 07:24:57;;;;;;;3.55;1.90;;;;;;;;;;5082740;28;20029;-72
2021/10/26 07:27:23;;;;;;;3.13;1.80;;;;;;;;;;5083167;28;20027;-72
2021/10/26 07:29:50;;;;;;;3.63;1.80;;;;;;;;;;5083147;28;20517;-73
2021/10/26 07:32:16;;;;;;;5.05;1.88;;;;;;;;;;5088229;28;20129;-73
2021/10/26 07:34:42;;;;;;;4.07;2.00;;;;;;;;;;5087188;28;20099;-71
2021/10/26 07:37:08;;;;;;;2.65;1.77;;;;;;;;;;5085675;28;20028;-73
2021/10/26 07:39:44;;;;;;;6.90;1.80;;;;;;;;;;5088120;28;20033;-71
2021/10/26 07:42:10;;;;;;;7.85;1.95;;;;;;;;;;5086778;28;20139;-71
2021/10/26 07:44:36;;;;;;;3.05;1.92;;;;;;;;;;5086148;28;20032;-75
2021/10/26 07:47:02;;;;;;;5.13;1.98;;;;;;;;;;5087023;28;20111;-72
2021/10/26 07:49:29;;;;;;;3.00;2.15;;;;;;;;;;5083939;28;20045;-73
2021/10/26 07:51:56;;;;;;;2.63;1.70;;;;;;;;;;5083843;28;20027;-73
2021/10/26 07:54:22;;;;;;;4.50;1.80;;;;;;;;;;5084506;28;20021;-73
2021/10/26 07:56:48;;;;;;;4.82;1.85;;;;;;;;;;5084035;28;20027;-75
2021/10/26 07:59:14;;;;;;;3.65;1.98;;;;;;;;;;5084169;28;20024;-75
2021/10/26 08:01:41;;;;;;;3.20;1.88;;;;;;;;;;5085970;28;20120;-75
2021/10/26 08:04:07;;;;;;;2.95;1.92;;;;;;;;;;5085803;28;20039;-73
2021/10/26 08:06:33;;;;;;;5.80;2.30;;;;;;;;;;5085643;28;20025;-73
2021/10/26 08:09:00;;;;;;;4.88;2.17;;;;;;;;;;5086231;28;20094;-71
2021/10/26 08:11:26;;;;;;;4.53;1.90;;;;;;;;;;5085902;28;20020;-75
2021/10/26 08:13:52;;;;;;;6.00;2.20;;;;;;;;;;5085895;28;20017;-74
2021/10/26 08:16:18;;;;;;;6.07;2.17;;;;;;;;;;5086596;28;20020;-73
2021/10/26 08:18:44;;;;;;;3.33;2.55;;;;;;;;;;5086840;28;20489;-75
2021/10/26 08:21:13;;;;;;;5.75;2.30;;;;;;;;;;5086357;28;20028;-75
2021/10/26 08:23:41;;;;;;;7.13;2.20;;;;;;;;;;5085824;28;20066;-76
2021/10/26 08:26:12;;;;;;;4.80;2.08;;;;;;;;;;5084437;28;20104;-72
2021/10/26 08:28:38;;;;;;;4.45;2.30;;;;;;;;;;5084591;28;20017;-72
2021/10/26 08:31:15;;;;;;;4.15;2.00;;;;;;;;;;5085895;28;20056;-75
2021/10/26 08:36:26;;;;;;;4.03;1.80;;;;;;;;;;5086081;28;20032;-72
2021/10/26 08:38:53;;;;;;;6.72;2.28;;;;;;;;;;5085247;28;20032;-74
2021/10/26 08:41:19;;;;;;;9.38;2.53;;;;;;;;;;5085498;28;20112;-72
2021/10/26 08:43:46;;;;;;;5.80;2.28;;;;;;;;;;5083211;28;20021;-74
2021/10/26 08:46:12;;;;;;;8.68;3.45;;;;;;;;;;5084065;28;20082;-75
2021/10/26 08:48:42;;;;;;;4.53;2.30;;;;;;;;;;5083548;28;20070;-74
2021/10/26 08:51:08;;;;;;;3.78;2.40;;;;;;;;;;5085070;28;20016;-72
2021/10/26 08:53:34;;;;;;;4.65;2.40;;;;;;;;;;5084542;28;20034;-75
2021/10/26 08:56:03;;;;;;;3.75;1.92;;;;;;;;;;5084967;28;20021;-74
2021/10/26 08:58:30;;;;;;;4.88;2.25;;;;;;;;;;5085033;28;20020;-74
2021/10/26 09:00:58;;;;;;;5.60;2.55;;;;;;;;;;5084388;28;20056;-72
2021/10/26 09:03:25;;;;;;;3.63;2.78;;;;;;;;;;5072561;28;20087;-73
2021/10/26 09:05:51;;;;;;;6.28;2.60;;;;;;;;;;5073657;28;20078;-76
2021/10/26 09:08:21;;;;;;;6.10;2.40;;;;;;;;;;5065090;28;20100;-76
2021/10/26 09:10:48;;;;;;;4.90;2.50;;;;;;;;;;5103313;28;20049;-73
2021/10/26 09:19:00;;;;;;;5.32;2.65;;;;;;;;;;5063996;28;20068;-73
2021/10/26 09:21:29;;;;;;;6.22;2.60;;;;;;;;;;5086155;28;20024;-74
2021/10/26 09:23:56;;;;;;;9.25;3.53;;;;;;;;;;5085689;28;20025;-72
2021/10/26 09:26:22;;;;;;;5.75;2.90;;;;;;;;;;5083607;28;20028;-73
2021/10/26 09:28:51;;;;;;;8.13;2.85;;;;;;;;;;5077153;28;20024;-73
2021/10/26 09:31:23;;;;;;;3.95;2.85;;;;;;;;;;5077477;28;20104;-75
2021/10/26 09:33:56;;;;;;;4.57;2.97;;;;;;;;;;5079302;28;20017;-75
2021/10/26 09:36:25;;;;;;;7.40;3.00;;;;;;;;;;5082209;28;20029;-75
2021/10/26 09:39:11;;;;;;;6.80;2.78;;;;;;;;;;5081930;28;20089;-73
2021/10/26 09:41:55;;;;;;;9.20;3.47;;;;;;;;;;5067998;28;20021;-74
2021/10/26 09:44:22;;;;;;;8.20;2.58;;;;;;;;;;5071731;28;20109;-78
2021/10/26 09:46:53;;;;;;;6.70;3.00;;;;;;;;;;5062956;28;20029;-72
2021/10/26 09:49:26;;;;;;;8.93;3.20;;;;;;;;;;5078119;28;20041;-73
2021/10/26 09:52:31;;;;;;;4.82;2.58;;;;;;;;;;5067313;28;20465;-73
2021/10/26 09:55:06;;;;;;;6.80;2.60;;;;;;;;;;5079427;28;20037;-74
2021/10/26 09:57:33;;;;;;;6.57;3.08;;;;;;;;;;5073819;28;20033;-73
2021/10/26 10:00:00;;;;;;;6.50;2.90;;;;;;;;;;5071629;28;20029;-74
2021/10/26 10:02:26;;;;;;;7.03;3.10;;;;;;;;;;5083282;28;20038;-71
2021/10/26 10:04:53;;;;;;;8.63;3.00;;;;;;;;;;5087994;28;20040;-72
2021/10/26 10:07:37;;;;;;;9.40;3.15;;;;;;;;;;5085209;28;20021;-74
2021/10/26 10:10:09;;;;;;;8.02;3.55;;;;;;;;;;5084460;28;20029;-72
2021/10/26 10:12:44;;;;;;;8.70;2.97;;;;;;;;;;5081817;28;20447;-71
2021/10/26 10:15:11;;;;;;;6.47;3.00;;;;;;;;;;5083507;28;20089;-71
2021/10/26 10:17:37;;;;;;;9.07;3.67;;;;;;;;;;5092982;28;20035;-73
2021/10/26 10:20:05;;;;;;;8.85;3.53;;;;;;;;;;5102328;28;20044;-74
2021/10/26 10:22:31;;;;;;;6.30;2.83;;;;;;;;;;5103375;28;20028;-74
2021/10/26 10:24:59;;;;;;;8.98;3.22;;;;;;;;;;5086115;28;20028;-72
2021/10/26 10:27:32;;;;;;;11.57;3.22;;;;;;;;;;5084944;28;20024;-72
2021/10/26 10:29:59;;;;;;;11.43;3.97;;;;;;;;;;5087425;28;20016;-72
2021/10/26 10:32:25;;;;;;;5.82;3.05;;;;;;;;;;5088625;28;20406;-73
2021/10/26 10:34:53;;;;;;;9.98;3.17;;;;;;;;;;5088347;28;20080;-72
2021/10/26 10:37:21;;;;;;;8.02;3.03;;;;;;;;;;5086832;28;20021;-72
2021/10/26 10:39:47;;;;;;;8.13;3.47;;;;;;;;;;5082599;28;20023;-72
2021/10/26 10:42:30;;;;;;;7.70;2.90;;;;;;;;;;5086168;28;20029;-75
2021/10/26 10:44:57;;;;;;;6.97;3.30;;;;;;;;;;5085637;28;20375;-75
2021/10/26 10:47:42;;;;;;;9.25;2.90;;;;;;;;;;5085776;28;20024;-74
2021/10/26 10:50:08;;;;;;;;;;;;;;;;;;5083551;28;20072;-73
2021/10/26 10:52:34;;;;;;;7.60;2.90;;;;;;;;;;5084394;28;19904;-75
2021/10/26 10:55:22;;;;;;;11.00;3.70;;;;;;;;;;5083288;28;20025;-76
2021/10/26 10:57:51;;;;;;;7.53;3.35;;;;;;;;;;5083592;28;20017;-76
2021/10/26 11:00:23;;;;;;;7.78;3.70;;;;;;;;;;5084587;28;20031;-73
2021/10/26 11:02:51;;;;;;;9.13;4.18;;;;;;;;;;5084074;28;20017;-75
2021/10/26 11:05:34;;;;;;;6.70;3.30;;;;;;;;;;5087802;28;20070;-74
2021/10/26 11:08:20;;;;;;;7.75;3.38;;;;;;;;;;5090246;28;20021;-73
2021/10/26 11:10:49;;;;;;;13.35;4.47;;;;;;;;;;5087505;28;20048;-74
2021/10/26 11:13:22;;;;;;;6.35;3.15;;;;;;;;;;5086193;28;20099;-74
2021/10/26 11:15:49;;;;;;;7.82;3.53;;;;;;;;;;5084561;28;20020;-74
2021/10/26 11:18:36;;;;;;;11.65;3.17;;;;;;;;;;5084815;28;20028;-75
2021/10/26 11:21:23;;;;;;;9.55;3.13;;;;;;;;;;5084580;28;20029;-74
2021/10/26 11:23:51;;;;;;;11.57;3.47;;;;;;;;;;5079911;28;20055;-75
2021/10/26 11:26:18;;;;;;;11.38;3.88;;;;;;;;;;5084309;28;20131;-76
2021/10/26 11:29:04;;;;;;;10.85;4.00;;;;;;;;;;5086279;28;20036;-72
2021/10/26 11:31:31;;;;;;;9.10;3.47;;;;;;;;;;5084088;28;20032;-71
2021/10/26 11:34:05;;;;;;;10.57;3.45;;;;;;;;;;5084187;28;20020;-75
2021/10/26 11:36:33;;;;;;;6.35;2.97;;;;;;;;;;5083982;28;20048;-74
2021/10/26 11:39:00;;;;;;;10.30;3.88;;;;;;;;;;5082546;28;20499;-74
2021/10/26 11:41:30;;;;;;;8.98;3.03;;;;;;;;;;5084503;28;20425;-75
2021/10/26 11:44:01;;;;;;;14.50;3.58;;;;;;;;;;5085245;28;20092;-72
2021/10/26 11:46:34;;;;;;;7.65;3.40;;;;;;;;;;5083037;28;20028;-76
2021/10/26 11:49:04;;;;;;;14.55;4.10;;;;;;;;;;5081967;28;20044;-74
2021/10/26 11:51:40;;;;;;;5.57;3.22;;;;;;;;;;5083021;28;20026;-74
2021/10/26 11:54:17;;;;;;;12.02;3.30;;;;;;;;;;5082876;28;20080;-74
2021/10/26 11:56:47;;;;;;;9.10;3.40;;;;;;;;;;5082913;28;20048;-72
2021/10/26 11:59:20;;;;;;;11.80;3.30;;;;;;;;;;5083011;28;20483;-71
2021/10/26 12:01:53;;;;;;;10.48;3.70;;;;;;;;;;5086293;28;20044;-72
2021/10/26 12:04:21;;;;;;;18.02;4.25;;;;;;;;;;5084316;28;20020;-75
2021/10/26 12:06:48;;;;;;;7.68;3.70;;;;;;;;;;5085303;28;20031;-71
2021/10/26 12:09:16;;;;;;;17.00;4.28;;;;;;;;;;5083896;28;20027;-75
2021/10/26 12:11:44;;;;;;;11.15;4.00;;;;;;;;;;5083790;28;20031;-74
2021/10/26 12:14:18;;;;;;;10.05;2.90;;;;;;;;;;5083800;28;20021;-75
2021/10/26 12:17:03;;;;;;;9.77;3.45;;;;;;;;;;5082671;28;20021;-72
2021/10/26 12:19:30;;;;;;;11.23;3.50;;;;;;;;;;5082517;28;20025;-76
2021/10/26 12:21:57;;;;;;;7.05;3.25;;;;;;;;;;5083039;28;20036;-72
2021/10/26 12:24:24;;;;;;;9.30;3.35;;;;;;;;;;5082964;28;20383;-73
2021/10/26 12:27:05;;;;;;;7.55;3.20;;;;;;;;;;5082824;28;20090;-74
2021/10/26 12:29:33;;;;;;;12.23;3.60;;;;;;;;;;5082118;28;20025;-73
2021/10/26 12:31:59;;;;;;;7.55;3.22;;;;;;;;;;5082301;28;20116;-72
2021/10/26 12:34:25;;;;;;;8.73;2.85;;;;;;;;;;5082492;28;20032;-74
2021/10/26 12:36:52;;;;;;;7.55;3.92;;;;;;;;;;5081944;28;20028;-77
2021/10/26 12:39:25;;;;;;;9.95;3.47;;;;;;;;;;5082178;28;20099;-74
2021/10/26 12:41:51;;;;;;;9.02;2.95;;;;;;;;;;5082731;28;20016;-71
2021/10/26 12:44:20;;;;;;;8.68;4.38;;;;;;;;;;5081310;28;20024;-77
2021/10/26 12:47:01;;;;;;;11.40;3.67;;;;;;;;;;5082574;28;20483;-77
2021/10/26 12:49:34;;;;;;;5.65;2.92;;;;;;;;;;5081466;28;20100;-74
2021/10/26 12:52:10;;;;;;;8.75;3.13;;;;;;;;;;5082981;28;20020;-74
2021/10/26 12:54:37;;;;;;;9.30;3.28;;;;;;;;;;5081685;28;20021;-76
2021/10/26 12:57:03;;;;;;;10.05;3.40;;;;;;;;;;5084257;28;20070;-74
2021/10/26 12:59:29;;;;;;;14.25;3.92;;;;;;;;;;5080933;28;20135;-70
2021/10/26 13:02:02;;;;;;;7.53;3.45;;;;;;;;;;5081341;28;20028;-76
2021/10/26 13:04:28;;;;;;;8.80;3.33;;;;;;;;;;5083625;28;20031;-77
2021/10/26 13:07:00;;;;;;;10.45;3.75;;;;;;;;;;5079763;28;20028;-75
2021/10/26 13:09:31;;;;;;;12.02;3.67;;;;;;;;;;5081148;28;20028;-74
2021/10/26 13:12:03;;;;;;;8.23;3.72;;;;;;;;;;5081905;28;20028;-74
2021/10/26 13:14:57;;;;;;;10.85;3.60;;;;;;;;;;5080667;28;20064;-75
2021/10/26 13:17:23;;;;;;;11.48;3.28;;;;;;;;;;5080343;28;20024;-72
2021/10/26 13:19:49;;;;;;;9.75;3.42;;;;;;;;;;5081668;28;20024;-75
2021/10/26 13:22:16;;;;;;;12.07;3.35;;;;;;;;;;5080544;28;20024;-75
2021/10/26 13:24:42;;;;;;;7.10;3.05;;;;;;;;;;5083321;28;20027;-72
2021/10/26 13:27:10;;;;;;;7.90;3.05;;;;;;;;;;5081043;28;20024;-72
2021/10/26 13:29:43;;;;;;;14.10;3.95;;;;;;;;;;5082060;28;20138;-74
2021/10/26 13:32:17;;;;;;;14.40;3.42;;;;;;;;;;5082471;28;20021;-76
2021/10/26 13:34:43;;;;;;;12.23;3.95;;;;;;;;;;5081286;28;20047;-74
2021/10/26 13:37:09;;;;;;;8.98;3.15;;;;;;;;;;5079557;28;20048;-74
2021/10/26 13:39:35;;;;;;;11.45;3.55;;;;;;;;;;5081567;28;20025;-71
2021/10/26 13:42:01;;;;;;;10.38;3.20;;;;;;;;;;5080661;28;20035;-74
2021/10/26 13:44:28;;;;;;;7.88;3.47;;;;;;;;;;5081917;28;20029;-73
2021/10/26 13:46:54;;;;;;;11.98;4.22;;;;;;;;;;5082032;28;20142;-72
2021/10/26 13:49:20;;;;;;;13.18;3.63;;;;;;;;;;5080151;28;20573;-77
2021/10/26 13:51:49;;;;;;;11.15;3.63;;;;;;;;;;5079114;28;20024;-73
2021/10/26 13:54:15;;;;;;;8.77;4.35;;;;;;;;;;5080559;28;20017;-74
2021/10/26 13:56:41;;;;;;;8.85;3.47;;;;;;;;;;5080542;28;20025;-72
2021/10/26 13:59:07;;;;;;;8.80;4.40;;;;;;;;;;5080217;28;20501;-75
2021/10/26 14:01:33;;;;;;;6.75;3.70;;;;;;;;;;5080582;28;20099;-76
2021/10/26 14:04:00;;;;;;;12.80;3.92;;;;;;;;;;5080422;28;20028;-73
2021/10/26 14:06:26;;;;;;;8.93;3.92;;;;;;;;;;5081272;28;20141;-76
2021/10/26 14:08:55;;;;;;;15.88;5.30;;;;;;;;;;5081977;28;20036;-72
2021/10/26 14:11:21;;;;;;;10.93;3.00;;;;;;;;;;5081452;28;20356;-73
2021/10/26 14:13:48;;;;;;;13.02;3.40;;;;;;;;;;5081124;28;20559;-77
2021/10/26 14:16:14;;;;;;;17.08;5.20;;;;;;;;;;5080030;28;20020;-77
2021/10/26 14:18:42;;;;;;;13.30;4.57;;;;;;;;;;5080359;28;20106;-73
2021/10/26 14:21:11;;;;;;;10.05;3.10;;;;;;;;;;5080345;28;20475;-73
2021/10/26 14:23:38;;;;;;;15.73;4.57;;;;;;;;;;5078074;28;20086;-77
2021/10/26 14:26:05;;;;;;;10.23;3.63;;;;;;;;;;5082093;28;20386;-73
2021/10/26 14:28:31;;;;;;;9.88;3.33;;;;;;;;;;5081166;28;20174;-72
2021/10/26 14:31:00;;;;;;;8.52;3.42;;;;;;;;;;5079223;28;20016;-75
2021/10/26 14:33:26;;;;;;;12.10;4.53;;;;;;;;;;5079409;28;20023;-75
2021/10/26 14:35:53;;;;;;;8.18;3.13;;;;;;;;;;5079213;28;20387;-74
2021/10/26 14:57:18;;;;;;;12.18;3.88;;;;;;;;;;5079471;28;20029;-74
2021/10/26 14:59:44;;;;;;;9.75;3.42;;;;;;;;;;5080498;28;20032;-74
2021/10/26 15:02:11;;;;;;;8.70;3.70;;;;;;;;;;5080147;28;20052;-75
2021/10/26 15:04:37;;;;;;;6.97;3.50;;;;;;;;;;5080437;28;20046;-75
2021/10/26 15:07:04;;;;;;;11.02;3.55;;;;;;;;;;5080192;28;20095;-71
2021/10/26 15:09:49;;;;;;;11.70;3.65;;;;;;;;;;5081698;28;20075;-73
2021/10/26 15:12:17;;;;;;;7.22;3.42;;;;;;;;;;5080330;28;20459;-75
2021/10/26 15:14:48;;;;;;;9.50;3.33;;;;;;;;;;5082097;28;20020;-75